sensor_id;sensor_type;location;lat;lon;timestamp;P1;durP1;ratioP1;P2;durP2;ratioP2
71435;SDS011;59251;51.326;12.370;2022-11-10T00:01:55;5.63;;;1.10;;
71435;SDS011;59251;51.326;12.370;2022-11-10T00:04:20;6.90;;;1.00;;
71435;SDS011;59251;51.326;12.370;2022-11-10T00:06:46;7.33;;;1.00;;
71435;SDS011;59251;51.326;12.370;2022-11-10T00:09:12;6.43;;;0.85;;
71435;SDS011;59251;51.326;12.370;2022-11-10T00:11:38;5.95;;;1.00;;
71435;SDS011;59251;51.326;12.370;2022-11-10T00:14:03;6.07;;;1.40;;
71435;SDS011;59251;51.326;12.370;2022-11-10T00:16:48;6.18;;;0.80;;
71435;SDS011;59251;51.326;12.370;2022-11-10T00:19:28;5.73;;;0.90;;
71435;SDS011;59251;51.326;12.370;2022-11-10T00:21:57;4.97;;;0.90;;
71435;SDS011;59251;51.326;12.370;2022-11-10T00:24:23;7.55;;;1.20;;
71435;SDS011;59251;51.326;12.370;2022-11-10T00:26:49;7.00;;;0.95;;
71435;SDS011;59251;51.326;12.370;2022-11-10T00:29:15;6.25;;;1.30;;
71435;SDS011;59251;51.326;12.370;2022-11-10T00:31:41;4.93;;;0.90;;
71435;SDS011;59251;51.326;12.370;2022-11-10T00:34:07;8.32;;;1.00;;
71435;SDS011;59251;51.326;12.370;2022-11-10T00:36:36;9.00;;;1.20;;
71435;SDS011;59251;51.326;12.370;2022-11-10T00:39:02;8.10;;;1.10;;
71435;SDS011;59251;51.326;12.370;2022-11-10T00:41:27;6.30;;;0.93;;
71435;SDS011;59251;51.326;12.370;2022-11-10T00:43:53;6.07;;;0.95;;
71435;SDS011;59251;51.326;12.370;2022-11-10T00:46:18;6.50;;;0.98;;
71435;SDS011;59251;51.326;12.370;2022-11-10T00:48:44;6.87;;;1.10;;
71435;SDS011;59251;51.326;12.370;2022-11-10T00:51:17;7.03;;;1.27;;
71435;SDS011;59251;51.326;12.370;2022-11-10T00:53:47;6.35;;;1.00;;
71435;SDS011;59251;51.326;12.370;2022-11-10T00:56:12;6.75;;;1.10;;
71435;SDS011;59251;51.326;12.370;2022-11-10T00:58:38;5.10;;;0.87;;
71435;SDS011;59251;51.326;12.370;2022-11-10T01:01:03;9.40;;;1.07;;
71435;SDS011;59251;51.326;12.370;2022-11-10T01:03:29;7.47;;;1.05;;
71435;SDS011;59251;51.326;12.370;2022-11-10T01:05:55;5.53;;;1.10;;
71435;SDS011;59251;51.326;12.370;2022-11-10T01:08:20;6.33;;;1.10;;
71435;SDS011;59251;51.326;12.370;2022-11-10T01:10:45;7.72;;;1.38;;
71435;SDS011;59251;51.326;12.370;2022-11-10T01:13:11;4.80;;;0.75;;
71435;SDS011;59251;51.326;12.370;2022-11-10T01:15:40;6.17;;;0.93;;
71435;SDS011;59251;51.326;12.370;2022-11-10T01:18:06;6.07;;;1.08;;
71435;SDS011;59251;51.326;12.370;2022-11-10T01:20:32;6.53;;;1.23;;
71435;SDS011;59251;51.326;12.370;2022-11-10T01:22:59;7.97;;;0.90;;
71435;SDS011;59251;51.326;12.370;2022-11-10T01:25:24;7.87;;;1.00;;
71435;SDS011;59251;51.326;12.370;2022-11-10T01:27:50;5.38;;;1.30;;
71435;SDS011;59251;51.326;12.370;2022-11-10T01:30:16;6.33;;;0.90;;
71435;SDS011;59251;51.326;12.370;2022-11-10T01:32:42;7.47;;;1.05;;
71435;SDS011;59251;51.326;12.370;2022-11-10T01:35:07;6.83;;;1.00;;
71435;SDS011;59251;51.326;12.370;2022-11-10T01:37:33;6.35;;;1.35;;
71435;SDS011;59251;51.326;12.370;2022-11-10T01:39:58;10.03;;;1.37;;
71435;SDS011;59251;51.326;12.370;2022-11-10T01:42:28;8.87;;;1.13;;
71435;SDS011;59251;51.326;12.370;2022-11-10T01:47:58;6.38;;;1.40;;
71435;SDS011;59251;51.326;12.370;2022-11-10T01:50:34;7.63;;;1.00;;
71435;SDS011;59251;51.326;12.370;2022-11-10T01:53:04;5.55;;;0.90;;
71435;SDS011;59251;51.326;12.370;2022-11-10T01:55:34;7.13;;;1.25;;
71435;SDS011;59251;51.326;12.370;2022-11-10T01:58:03;7.60;;;1.20;;
71435;SDS011;59251;51.326;12.370;2022-11-10T02:00:29;8.10;;;1.00;;
71435;SDS011;59251;51.326;12.370;2022-11-10T02:02:57;5.83;;;0.90;;
71435;SDS011;59251;51.326;12.370;2022-11-10T02:05:26;7.85;;;1.00;;
71435;SDS011;59251;51.326;12.370;2022-11-10T02:07:52;6.60;;;1.07;;
71435;SDS011;59251;51.326;12.370;2022-11-10T02:10:20;6.00;;;0.82;;
71435;SDS011;59251;51.326;12.370;2022-11-10T02:12:45;6.30;;;0.97;;
71435;SDS011;59251;51.326;12.370;2022-11-10T02:15:12;8.30;;;0.90;;
71435;SDS011;59251;51.326;12.370;2022-11-10T02:17:40;5.30;;;0.82;;
71435;SDS011;59251;51.326;12.370;2022-11-10T02:20:07;8.95;;;1.20;;
71435;SDS011;59251;51.326;12.370;2022-11-10T02:22:35;7.57;;;1.00;;
71435;SDS011;59251;51.326;12.370;2022-11-10T02:25:00;6.32;;;1.42;;
71435;SDS011;59251;51.326;12.370;2022-11-10T02:27:26;5.50;;;0.90;;
71435;SDS011;59251;51.326;12.370;2022-11-10T02:29:52;6.90;;;1.20;;
71435;SDS011;59251;51.326;12.370;2022-11-10T02:32:17;7.33;;;1.00;;
71435;SDS011;59251;51.326;12.370;2022-11-10T02:34:43;8.65;;;1.10;;
71435;SDS011;59251;51.326;12.370;2022-11-10T02:37:09;9.57;;;1.30;;
71435;SDS011;59251;51.326;12.370;2022-11-10T02:39:35;9.23;;;1.27;;
71435;SDS011;59251;51.326;12.370;2022-11-10T02:42:01;7.72;;;1.17;;
71435;SDS011;59251;51.326;12.370;2022-11-10T02:44:27;9.13;;;1.40;;
71435;SDS011;59251;51.326;12.370;2022-11-10T02:46:52;9.25;;;1.40;;
71435;SDS011;59251;51.326;12.370;2022-11-10T02:49:17;8.37;;;1.10;;
71435;SDS011;59251;51.326;12.370;2022-11-10T02:51:43;8.20;;;1.50;;
71435;SDS011;59251;51.326;12.370;2022-11-10T02:54:08;8.07;;;1.10;;
71435;SDS011;59251;51.326;12.370;2022-11-10T02:56:34;8.17;;;1.10;;
71435;SDS011;59251;51.326;12.370;2022-11-10T02:58:59;7.25;;;1.88;;
71435;SDS011;59251;51.326;12.370;2022-11-10T03:01:25;6.60;;;1.10;;
71435;SDS011;59251;51.326;12.370;2022-11-10T03:03:51;12.80;;;1.50;;
71435;SDS011;59251;51.326;12.370;2022-11-10T03:06:16;9.27;;;1.40;;
71435;SDS011;59251;51.326;12.370;2022-11-10T03:08:42;10.90;;;1.80;;
71435;SDS011;59251;51.326;12.370;2022-11-10T03:11:07;6.03;;;1.15;;
71435;SDS011;59251;51.326;12.370;2022-11-10T03:13:32;6.40;;;1.43;;
71435;SDS011;59251;51.326;12.370;2022-11-10T03:15:58;8.63;;;1.47;;
71435;SDS011;59251;51.326;12.370;2022-11-10T03:18:23;8.07;;;1.38;;
71435;SDS011;59251;51.326;12.370;2022-11-10T03:20:49;9.82;;;1.15;;
71435;SDS011;59251;51.326;12.370;2022-11-10T03:23:18;7.40;;;1.30;;
71435;SDS011;59251;51.326;12.370;2022-11-10T03:25:44;7.55;;;1.25;;
71435;SDS011;59251;51.326;12.370;2022-11-10T03:28:10;8.23;;;1.45;;
71435;SDS011;59251;51.326;12.370;2022-11-10T03:30:36;8.63;;;1.63;;
71435;SDS011;59251;51.326;12.370;2022-11-10T03:33:02;10.67;;;1.70;;
71435;SDS011;59251;51.326;12.370;2022-11-10T03:35:27;7.95;;;1.25;;
71435;SDS011;59251;51.326;12.370;2022-11-10T03:37:53;6.63;;;1.73;;
71435;SDS011;59251;51.326;12.370;2022-11-10T03:40:18;8.90;;;1.70;;
71435;SDS011;59251;51.326;12.370;2022-11-10T03:42:44;10.05;;;1.95;;
71435;SDS011;59251;51.326;12.370;2022-11-10T03:45:11;9.47;;;1.43;;
71435;SDS011;59251;51.326;12.370;2022-11-10T03:47:37;8.32;;;1.70;;
71435;SDS011;59251;51.326;12.370;2022-11-10T03:50:03;13.60;;;1.98;;
71435;SDS011;59251;51.326;12.370;2022-11-10T03:52:30;7.10;;;1.60;;
71435;SDS011;59251;51.326;12.370;2022-11-10T03:54:55;6.93;;;1.43;;
71435;SDS011;59251;51.326;12.370;2022-11-10T03:57:21;8.27;;;1.57;;
71435;SDS011;59251;51.326;12.370;2022-11-10T03:59:46;6.75;;;1.40;;
71435;SDS011;59251;51.326;12.370;2022-11-10T04:02:11;9.53;;;1.87;;
71435;SDS011;59251;51.326;12.370;2022-11-10T04:04:37;8.20;;;1.30;;
71435;SDS011;59251;51.326;12.370;2022-11-10T04:07:21;6.53;;;1.50;;
71435;SDS011;59251;51.326;12.370;2022-11-10T04:10:05;8.30;;;1.73;;
71435;SDS011;59251;51.326;12.370;2022-11-10T04:12:31;8.00;;;1.60;;
71435;SDS011;59251;51.326;12.370;2022-11-10T04:15:15;9.43;;;1.48;;
71435;SDS011;59251;51.326;12.370;2022-11-10T04:17:59;6.53;;;1.40;;
71435;SDS011;59251;51.326;12.370;2022-11-10T04:20:43;8.75;;;1.35;;
71435;SDS011;59251;51.326;12.370;2022-11-10T04:23:09;6.87;;;1.23;;
71435;SDS011;59251;51.326;12.370;2022-11-10T04:25:54;9.52;;;2.33;;
71435;SDS011;59251;51.326;12.370;2022-11-10T04:28:46;9.35;;;1.70;;
71435;SDS011;59251;51.326;12.370;2022-11-10T04:31:15;6.03;;;1.45;;
71435;SDS011;59251;51.326;12.370;2022-11-10T04:33:41;7.65;;;1.60;;
71435;SDS011;59251;51.326;12.370;2022-11-10T04:36:08;7.40;;;1.40;;
71435;SDS011;59251;51.326;12.370;2022-11-10T04:38:35;9.43;;;1.50;;
71435;SDS011;59251;51.326;12.370;2022-11-10T04:41:01;9.02;;;1.58;;
71435;SDS011;59251;51.326;12.370;2022-11-10T04:43:26;10.75;;;2.25;;
71435;SDS011;59251;51.326;12.370;2022-11-10T04:45:52;9.65;;;1.45;;
71435;SDS011;59251;51.326;12.370;2022-11-10T04:48:18;9.00;;;1.67;;
71435;SDS011;59251;51.326;12.370;2022-11-10T04:50:44;7.03;;;1.63;;
71435;SDS011;59251;51.326;12.370;2022-11-10T04:53:09;10.57;;;1.63;;
71435;SDS011;59251;51.326;12.370;2022-11-10T04:55:37;6.03;;;1.30;;
71435;SDS011;59251;51.326;12.370;2022-11-10T04:58:04;10.33;;;1.60;;
71435;SDS011;59251;51.326;12.370;2022-11-10T05:00:30;7.93;;;1.27;;
71435;SDS011;59251;51.326;12.370;2022-11-10T05:02:57;10.17;;;1.70;;
71435;SDS011;59251;51.326;12.370;2022-11-10T05:05:24;9.27;;;1.58;;
71435;SDS011;59251;51.326;12.370;2022-11-10T05:07:49;8.07;;;1.43;;
71435;SDS011;59251;51.326;12.370;2022-11-10T05:10:15;10.45;;;1.50;;
71435;SDS011;59251;51.326;12.370;2022-11-10T05:12:40;10.63;;;1.88;;
71435;SDS011;59251;51.326;12.370;2022-11-10T05:15:05;9.60;;;1.90;;
71435;SDS011;59251;51.326;12.370;2022-11-10T05:17:31;9.65;;;1.60;;
71435;SDS011;59251;51.326;12.370;2022-11-10T05:19:57;8.85;;;1.80;;
71435;SDS011;59251;51.326;12.370;2022-11-10T05:22:22;10.00;;;2.00;;
71435;SDS011;59251;51.326;12.370;2022-11-10T05:24:47;7.47;;;1.70;;
71435;SDS011;59251;51.326;12.370;2022-11-10T05:27:13;7.33;;;1.60;;
71435;SDS011;59251;51.326;12.370;2022-11-10T05:29:38;11.67;;;1.83;;
71435;SDS011;59251;51.326;12.370;2022-11-10T05:32:04;9.27;;;1.90;;
71435;SDS011;59251;51.326;12.370;2022-11-10T05:34:29;7.30;;;1.67;;
71435;SDS011;59251;51.326;12.370;2022-11-10T05:36:55;8.18;;;1.85;;
71435;SDS011;59251;51.326;12.370;2022-11-10T05:39:20;8.63;;;2.40;;
71435;SDS011;59251;51.326;12.370;2022-11-10T05:41:46;7.27;;;1.30;;
71435;SDS011;59251;51.326;12.370;2022-11-10T05:44:11;12.20;;;1.80;;
71435;SDS011;59251;51.326;12.370;2022-11-10T05:46:37;10.03;;;1.60;;
71435;SDS011;59251;51.326;12.370;2022-11-10T05:49:02;9.15;;;1.70;;
71435;SDS011;59251;51.326;12.370;2022-11-10T05:51:27;9.02;;;2.03;;
71435;SDS011;59251;51.326;12.370;2022-11-10T05:53:53;7.70;;;1.60;;
71435;SDS011;59251;51.326;12.370;2022-11-10T05:56:18;7.50;;;1.70;;
71435;SDS011;59251;51.326;12.370;2022-11-10T05:58:44;7.87;;;1.80;;
71435;SDS011;59251;51.326;12.370;2022-11-10T06:01:09;9.87;;;1.63;;
71435;SDS011;59251;51.326;12.370;2022-11-10T06:03:34;7.80;;;1.55;;
71435;SDS011;59251;51.326;12.370;2022-11-10T06:06:00;6.03;;;1.67;;
71435;SDS011;59251;51.326;12.370;2022-11-10T06:08:25;8.87;;;1.60;;
71435;SDS011;59251;51.326;12.370;2022-11-10T06:10:51;8.47;;;1.50;;
71435;SDS011;59251;51.326;12.370;2022-11-10T06:13:16;8.75;;;1.20;;
71435;SDS011;59251;51.326;12.370;2022-11-10T06:15:42;7.30;;;1.30;;
71435;SDS011;59251;51.326;12.370;2022-11-10T06:18:07;11.23;;;2.10;;
71435;SDS011;59251;51.326;12.370;2022-11-10T06:20:33;10.23;;;1.70;;
71435;SDS011;59251;51.326;12.370;2022-11-10T06:23:02;7.32;;;1.60;;
71435;SDS011;59251;51.326;12.370;2022-11-10T06:25:30;12.13;;;1.70;;
71435;SDS011;59251;51.326;12.370;2022-11-10T06:27:58;10.30;;;1.55;;
71435;SDS011;59251;51.326;12.370;2022-11-10T06:30:24;7.68;;;1.35;;
71435;SDS011;59251;51.326;12.370;2022-11-10T06:32:50;8.80;;;1.40;;
71435;SDS011;59251;51.326;12.370;2022-11-10T06:35:16;7.63;;;1.90;;
71435;SDS011;59251;51.326;12.370;2022-11-10T06:37:41;7.95;;;1.60;;
71435;SDS011;59251;51.326;12.370;2022-11-10T06:40:08;9.07;;;2.63;;
71435;SDS011;59251;51.326;12.370;2022-11-10T06:42:34;8.60;;;1.70;;
71435;SDS011;59251;51.326;12.370;2022-11-10T06:45:00;10.00;;;1.65;;
71435;SDS011;59251;51.326;12.370;2022-11-10T06:47:26;9.03;;;2.27;;
71435;SDS011;59251;51.326;12.370;2022-11-10T06:49:51;9.17;;;2.10;;
71435;SDS011;59251;51.326;12.370;2022-11-10T06:52:17;9.30;;;1.98;;
71435;SDS011;59251;51.326;12.370;2022-11-10T06:54:43;7.63;;;1.83;;
71435;SDS011;59251;51.326;12.370;2022-11-10T06:57:08;12.27;;;2.22;;
71435;SDS011;59251;51.326;12.370;2022-11-10T06:59:34;11.90;;;2.10;;
71435;SDS011;59251;51.326;12.370;2022-11-10T07:01:59;10.57;;;2.10;;
71435;SDS011;59251;51.326;12.370;2022-11-10T07:04:24;12.57;;;2.20;;
71435;SDS011;59251;51.326;12.370;2022-11-10T07:06:50;8.07;;;1.67;;
71435;SDS011;59251;51.326;12.370;2022-11-10T07:09:15;10.30;;;1.90;;
71435;SDS011;59251;51.326;12.370;2022-11-10T07:11:41;10.50;;;1.60;;
71435;SDS011;59251;51.326;12.370;2022-11-10T07:14:06;11.17;;;1.80;;
71435;SDS011;59251;51.326;12.370;2022-11-10T07:16:32;10.00;;;2.10;;
71435;SDS011;59251;51.326;12.370;2022-11-10T07:18:57;10.97;;;2.00;;
71435;SDS011;59251;51.326;12.370;2022-11-10T07:21:22;7.40;;;1.52;;
71435;SDS011;59251;51.326;12.370;2022-11-10T07:23:48;8.27;;;1.50;;
71435;SDS011;59251;51.326;12.370;2022-11-10T07:26:13;14.87;;;1.90;;
71435;SDS011;59251;51.326;12.370;2022-11-10T07:28:39;6.70;;;1.60;;
71435;SDS011;59251;51.326;12.370;2022-11-10T07:31:04;16.97;;;2.90;;
71435;SDS011;59251;51.326;12.370;2022-11-10T07:33:29;9.43;;;1.95;;
71435;SDS011;59251;51.326;12.370;2022-11-10T07:35:56;13.60;;;1.97;;
71435;SDS011;59251;51.326;12.370;2022-11-10T07:38:22;11.10;;;1.50;;
71435;SDS011;59251;51.326;12.370;2022-11-10T07:40:51;7.83;;;1.43;;
71435;SDS011;59251;51.326;12.370;2022-11-10T07:43:21;6.82;;;1.48;;
71435;SDS011;59251;51.326;12.370;2022-11-10T07:45:49;8.20;;;1.40;;
71435;SDS011;59251;51.326;12.370;2022-11-10T07:48:15;9.07;;;1.70;;
71435;SDS011;59251;51.326;12.370;2022-11-10T07:50:42;7.33;;;1.20;;
71435;SDS011;59251;51.326;12.370;2022-11-10T07:53:09;9.18;;;1.70;;
71435;SDS011;59251;51.326;12.370;2022-11-10T07:55:38;10.05;;;1.75;;
71435;SDS011;59251;51.326;12.370;2022-11-10T07:58:05;10.10;;;1.42;;
71435;SDS011;59251;51.326;12.370;2022-11-10T08:00:31;9.83;;;1.70;;
71435;SDS011;59251;51.326;12.370;2022-11-10T08:03:01;7.75;;;1.40;;
71435;SDS011;59251;51.326;12.370;2022-11-10T08:05:30;7.63;;;1.42;;
71435;SDS011;59251;51.326;12.370;2022-11-10T08:07:56;9.32;;;1.75;;
71435;SDS011;59251;51.326;12.370;2022-11-10T08:10:22;9.53;;;1.40;;
71435;SDS011;59251;51.326;12.370;2022-11-10T08:12:58;8.73;;;1.48;;
71435;SDS011;59251;51.326;12.370;2022-11-10T08:15:25;11.32;;;1.80;;
71435;SDS011;59251;51.326;12.370;2022-11-10T08:18:03;8.80;;;1.10;;
71435;SDS011;59251;51.326;12.370;2022-11-10T08:20:30;9.77;;;1.65;;
71435;SDS011;59251;51.326;12.370;2022-11-10T08:23:00;9.10;;;1.60;;
71435;SDS011;59251;51.326;12.370;2022-11-10T08:25:27;8.50;;;1.70;;
71435;SDS011;59251;51.326;12.370;2022-11-10T08:27:57;7.72;;;1.38;;
71435;SDS011;59251;51.326;12.370;2022-11-10T08:30:25;11.93;;;1.60;;
71435;SDS011;59251;51.326;12.370;2022-11-10T08:32:57;11.68;;;1.73;;
71435;SDS011;59251;51.326;12.370;2022-11-10T08:35:26;9.55;;;1.55;;
71435;SDS011;59251;51.326;12.370;2022-11-10T08:37:53;7.28;;;1.30;;
71435;SDS011;59251;51.326;12.370;2022-11-10T08:40:19;10.90;;;1.63;;
71435;SDS011;59251;51.326;12.370;2022-11-10T08:42:45;10.13;;;1.30;;
71435;SDS011;59251;51.326;12.370;2022-11-10T08:45:11;6.80;;;1.15;;
71435;SDS011;59251;51.326;12.370;2022-11-10T08:47:37;8.15;;;1.38;;
71435;SDS011;59251;51.326;12.370;2022-11-10T08:50:04;7.63;;;1.48;;
71435;SDS011;59251;51.326;12.370;2022-11-10T08:52:30;6.65;;;1.40;;
71435;SDS011;59251;51.326;12.370;2022-11-10T08:54:55;9.50;;;1.53;;
71435;SDS011;59251;51.326;12.370;2022-11-10T08:57:21;10.23;;;1.57;;
71435;SDS011;59251;51.326;12.370;2022-11-10T08:59:46;9.73;;;1.50;;
71435;SDS011;59251;51.326;12.370;2022-11-10T09:02:12;7.73;;;1.60;;
71435;SDS011;59251;51.326;12.370;2022-11-10T09:04:37;9.40;;;1.80;;
71435;SDS011;59251;51.326;12.370;2022-11-10T09:07:03;8.17;;;1.50;;
71435;SDS011;59251;51.326;12.370;2022-11-10T09:09:28;9.20;;;1.80;;
71435;SDS011;59251;51.326;12.370;2022-11-10T09:11:54;8.82;;;1.80;;
71435;SDS011;59251;51.326;12.370;2022-11-10T09:14:19;10.73;;;1.70;;
71435;SDS011;59251;51.326;12.370;2022-11-10T09:16:44;16.13;;;1.80;;
71435;SDS011;59251;51.326;12.370;2022-11-10T09:19:10;11.07;;;1.73;;
71435;SDS011;59251;51.326;12.370;2022-11-10T09:21:36;10.38;;;1.30;;
71435;SDS011;59251;51.326;12.370;2022-11-10T09:24:02;10.25;;;1.50;;
71435;SDS011;59251;51.326;12.370;2022-11-10T09:26:27;11.57;;;2.20;;
71435;SDS011;59251;51.326;12.370;2022-11-10T09:28:54;6.93;;;1.30;;
71435;SDS011;59251;51.326;12.370;2022-11-10T09:31:20;9.10;;;1.83;;
71435;SDS011;59251;51.326;12.370;2022-11-10T09:33:45;8.40;;;1.67;;
71435;SDS011;59251;51.326;12.370;2022-11-10T09:36:11;9.90;;;1.40;;
71435;SDS011;59251;51.326;12.370;2022-11-10T09:38:36;7.63;;;1.58;;
71435;SDS011;59251;51.326;12.370;2022-11-10T09:41:05;6.85;;;1.58;;
71435;SDS011;59251;51.326;12.370;2022-11-10T09:46:13;8.38;;;1.55;;
71435;SDS011;59251;51.326;12.370;2022-11-10T09:48:43;8.80;;;1.83;;
71435;SDS011;59251;51.326;12.370;2022-11-10T09:54:12;7.32;;;1.60;;
71435;SDS011;59251;51.326;12.370;2022-11-10T09:56:46;9.57;;;1.70;;
71435;SDS011;59251;51.326;12.370;2022-11-10T09:59:15;9.90;;;2.30;;
71435;SDS011;59251;51.326;12.370;2022-11-10T10:01:50;7.57;;;1.38;;
71435;SDS011;59251;51.326;12.370;2022-11-10T10:07:10;9.88;;;1.50;;
71435;SDS011;59251;51.326;12.370;2022-11-10T10:25:21;13.10;;;1.85;;
71435;SDS011;59251;51.326;12.370;2022-11-10T10:30:50;7.43;;;1.30;;
71435;SDS011;59251;51.326;12.370;2022-11-10T10:33:18;12.32;;;1.88;;
71435;SDS011;59251;51.326;12.370;2022-11-10T10:35:46;6.83;;;1.50;;
71435;SDS011;59251;51.326;12.370;2022-11-10T10:40:54;11.45;;;2.35;;
71435;SDS011;59251;51.326;12.370;2022-11-10T10:43:24;11.73;;;1.63;;
71435;SDS011;59251;51.326;12.370;2022-11-10T10:46:06;12.17;;;1.40;;
71435;SDS011;59251;51.326;12.370;2022-11-10T10:48:33;8.55;;;1.60;;
71435;SDS011;59251;51.326;12.370;2022-11-10T10:50:58;8.73;;;1.60;;
71435;SDS011;59251;51.326;12.370;2022-11-10T10:53:24;8.70;;;1.67;;
71435;SDS011;59251;51.326;12.370;2022-11-10T10:59:08;8.50;;;1.48;;
71435;SDS011;59251;51.326;12.370;2022-11-10T11:01:31;9.30;;;1.60;;
71435;SDS011;59251;51.326;12.370;2022-11-10T11:03:58;6.70;;;1.48;;
71435;SDS011;59251;51.326;12.370;2022-11-10T11:06:31;8.65;;;1.42;;
71435;SDS011;59251;51.326;12.370;2022-11-10T11:11:40;12.40;;;1.60;;
71435;SDS011;59251;51.326;12.370;2022-11-10T11:14:18;10.88;;;1.58;;
71435;SDS011;59251;51.326;12.370;2022-11-10T11:19:15;7.20;;;1.40;;
71435;SDS011;59251;51.326;12.370;2022-11-10T11:38:41;9.85;;;1.55;;
71435;SDS011;59251;51.326;12.370;2022-11-10T11:41:31;13.02;;;1.42;;
71435;SDS011;59251;51.326;12.370;2022-11-10T11:44:54;11.80;;;1.65;;
71435;SDS011;59251;51.326;12.370;2022-11-10T11:52:32;9.35;;;1.63;;
71435;SDS011;59251;51.326;12.370;2022-11-10T11:55:10;8.55;;;1.67;;
71435;SDS011;59251;51.326;12.370;2022-11-10T12:07:12;10.52;;;1.67;;
71435;SDS011;59251;51.326;12.370;2022-11-10T12:09:45;10.23;;;1.50;;
71435;SDS011;59251;51.326;12.370;2022-11-10T12:23:13;8.68;;;1.17;;
71435;SDS011;59251;51.326;12.370;2022-11-10T12:25:50;8.88;;;1.48;;
71435;SDS011;59251;51.326;12.370;2022-11-10T12:28:41;8.50;;;1.58;;
71435;SDS011;59251;51.326;12.370;2022-11-10T12:31:13;8.43;;;1.30;;
71435;SDS011;59251;51.326;12.370;2022-11-10T12:33:43;8.13;;;1.55;;
71435;SDS011;59251;51.326;12.370;2022-11-10T12:36:15;6.47;;;1.17;;
71435;SDS011;59251;51.326;12.370;2022-11-10T12:38:51;6.88;;;1.55;;
71435;SDS011;59251;51.326;12.370;2022-11-10T12:41:18;6.55;;;0.90;;
71435;SDS011;59251;51.326;12.370;2022-11-10T12:46:16;7.45;;;0.93;;
71435;SDS011;59251;51.326;12.370;2022-11-10T12:48:47;8.63;;;1.00;;
71435;SDS011;59251;51.326;12.370;2022-11-10T12:54:26;7.82;;;1.00;;
71435;SDS011;59251;51.326;12.370;2022-11-10T12:56:53;9.90;;;1.63;;
71435;SDS011;59251;51.326;12.370;2022-11-10T12:59:25;6.40;;;1.00;;
71435;SDS011;59251;51.326;12.370;2022-11-10T13:01:58;7.30;;;1.20;;
71435;SDS011;59251;51.326;12.370;2022-11-10T13:04:28;6.95;;;1.08;;
71435;SDS011;59251;51.326;12.370;2022-11-10T13:06:55;6.15;;;0.70;;
71435;SDS011;59251;51.326;12.370;2022-11-10T13:09:33;6.38;;;1.02;;
71435;SDS011;59251;51.326;12.370;2022-11-10T13:14:40;6.87;;;1.00;;
71435;SDS011;59251;51.326;12.370;2022-11-10T13:17:07;9.02;;;1.35;;
71435;SDS011;59251;51.326;12.370;2022-11-10T13:22:09;9.85;;;1.30;;
71435;SDS011;59251;51.326;12.370;2022-11-10T13:24:36;8.57;;;1.15;;
71435;SDS011;59251;51.326;12.370;2022-11-10T13:27:04;9.53;;;1.40;;
71435;SDS011;59251;51.326;12.370;2022-11-10T13:34:41;8.30;;;1.40;;
71435;SDS011;59251;51.326;12.370;2022-11-10T13:42:43;8.20;;;1.40;;
71435;SDS011;59251;51.326;12.370;2022-11-10T13:58:37;9.17;;;1.40;;
71435;SDS011;59251;51.326;12.370;2022-11-10T14:03:57;9.55;;;1.50;;
71435;SDS011;59251;51.326;12.370;2022-11-10T14:06:28;7.88;;;1.17;;
71435;SDS011;59251;51.326;12.370;2022-11-10T14:09:05;7.85;;;1.50;;
71435;SDS011;59251;51.326;12.370;2022-11-10T14:15:02;10.00;;;1.10;;
71435;SDS011;59251;51.326;12.370;2022-11-10T14:17:33;8.38;;;1.23;;
71435;SDS011;59251;51.326;12.370;2022-11-10T14:20:16;7.60;;;1.52;;
71435;SDS011;59251;51.326;12.370;2022-11-10T14:23:04;7.93;;;1.58;;
71435;SDS011;59251;51.326;12.370;2022-11-10T14:25:39;9.00;;;1.23;;
71435;SDS011;59251;51.326;12.370;2022-11-10T14:28:26;12.32;;;1.58;;
71435;SDS011;59251;51.326;12.370;2022-11-10T14:30:53;7.30;;;1.38;;
71435;SDS011;59251;51.326;12.370;2022-11-10T14:33:19;9.40;;;1.40;;
71435;SDS011;59251;51.326;12.370;2022-11-10T14:38:28;7.97;;;1.65;;
71435;SDS011;59251;51.326;12.370;2022-11-10T14:40:58;7.60;;;1.20;;
71435;SDS011;59251;51.326;12.370;2022-11-10T14:43:32;9.63;;;1.10;;
71435;SDS011;59251;51.326;12.370;2022-11-10T14:46:03;7.47;;;1.00;;
71435;SDS011;59251;51.326;12.370;2022-11-10T14:48:31;7.22;;;1.23;;
71435;SDS011;59251;51.326;12.370;2022-11-10T14:51:01;11.68;;;1.35;;
71435;SDS011;59251;51.326;12.370;2022-11-10T14:53:32;11.45;;;1.50;;
71435;SDS011;59251;51.326;12.370;2022-11-10T14:56:02;7.18;;;1.00;;
71435;SDS011;59251;51.326;12.370;2022-11-10T14:58:31;11.25;;;1.40;;
71435;SDS011;59251;51.326;12.370;2022-11-10T15:01:01;12.20;;;1.33;;
71435;SDS011;59251;51.326;12.370;2022-11-10T15:06:02;12.00;;;1.42;;
71435;SDS011;59251;51.326;12.370;2022-11-10T15:08:29;8.55;;;1.40;;
71435;SDS011;59251;51.326;12.370;2022-11-10T15:10:56;9.10;;;1.45;;
71435;SDS011;59251;51.326;12.370;2022-11-10T15:18:54;7.40;;;1.15;;
71435;SDS011;59251;51.326;12.370;2022-11-10T15:21:40;10.20;;;1.50;;
71435;SDS011;59251;51.326;12.370;2022-11-10T15:24:05;8.77;;;1.20;;
71435;SDS011;59251;51.326;12.370;2022-11-10T15:26:32;10.88;;;1.52;;
71435;SDS011;59251;51.326;12.370;2022-11-10T15:29:03;8.40;;;1.27;;
71435;SDS011;59251;51.326;12.370;2022-11-10T15:31:29;8.47;;;1.60;;
71435;SDS011;59251;51.326;12.370;2022-11-10T15:34:00;12.57;;;1.48;;
71435;SDS011;59251;51.326;12.370;2022-11-10T15:41:42;8.70;;;1.58;;
71435;SDS011;59251;51.326;12.370;2022-11-10T15:44:13;8.45;;;1.23;;
71435;SDS011;59251;51.326;12.370;2022-11-10T15:46:39;11.02;;;1.38;;
71435;SDS011;59251;51.326;12.370;2022-11-10T15:49:47;13.13;;;1.60;;
71435;SDS011;59251;51.326;12.370;2022-11-10T15:52:00;12.68;;;1.73;;
71435;SDS011;59251;51.326;12.370;2022-11-10T15:54:29;8.20;;;1.73;;
71435;SDS011;59251;51.326;12.370;2022-11-10T15:56:56;7.50;;;1.08;;
71435;SDS011;59251;51.326;12.370;2022-11-10T15:59:22;9.87;;;1.30;;
71435;SDS011;59251;51.326;12.370;2022-11-10T16:01:48;9.07;;;1.93;;
71435;SDS011;59251;51.326;12.370;2022-11-10T16:04:14;8.75;;;1.50;;
71435;SDS011;59251;51.326;12.370;2022-11-10T16:06:40;15.77;;;2.23;;
71435;SDS011;59251;51.326;12.370;2022-11-10T16:09:05;9.15;;;1.65;;
71435;SDS011;59251;51.326;12.370;2022-11-10T16:11:33;9.63;;;1.80;;
71435;SDS011;59251;51.326;12.370;2022-11-10T16:14:00;12.02;;;1.80;;
71435;SDS011;59251;51.326;12.370;2022-11-10T16:16:27;8.07;;;1.60;;
71435;SDS011;59251;51.326;12.370;2022-11-10T16:18:52;8.98;;;1.65;;
71435;SDS011;59251;51.326;12.370;2022-11-10T16:21:19;9.40;;;1.73;;
71435;SDS011;59251;51.326;12.370;2022-11-10T16:23:46;12.43;;;1.75;;
71435;SDS011;59251;51.326;12.370;2022-11-10T16:26:12;10.27;;;1.70;;
71435;SDS011;59251;51.326;12.370;2022-11-10T16:28:40;10.45;;;2.20;;
71435;SDS011;59251;51.326;12.370;2022-11-10T16:31:08;11.85;;;2.42;;
71435;SDS011;59251;51.326;12.370;2022-11-10T16:33:35;9.27;;;2.17;;
71435;SDS011;59251;51.326;12.370;2022-11-10T16:36:00;12.67;;;2.37;;
71435;SDS011;59251;51.326;12.370;2022-11-10T16:38:27;11.95;;;1.80;;
71435;SDS011;59251;51.326;12.370;2022-11-10T16:40:55;12.65;;;2.40;;
71435;SDS011;59251;51.326;12.370;2022-11-10T16:43:24;11.48;;;2.40;;
71435;SDS011;59251;51.326;12.370;2022-11-10T16:45:50;10.82;;;2.30;;
71435;SDS011;59251;51.326;12.370;2022-11-10T16:48:22;12.80;;;3.15;;
71435;SDS011;59251;51.326;12.370;2022-11-10T16:50:52;11.45;;;3.13;;
71435;SDS011;59251;51.326;12.370;2022-11-10T16:53:20;14.18;;;2.83;;
71435;SDS011;59251;51.326;12.370;2022-11-10T16:55:47;10.07;;;2.63;;
71435;SDS011;59251;51.326;12.370;2022-11-10T16:58:13;11.05;;;2.80;;